CheckWX is a tool to help pilots better visualize weather data.  It is not intended as a substitute for an official pre-flight weather briefing.

07:14:14 UTC

KJXN METAR
Jackson County-Reynolds Field Airport
Jackson, Michigan, USA
Current

18 mins ago

KJXN 230656Z AUTO 24008KT 10SM SCT011 BKN050 OVC070 21/19 A2983 RMK AO2 RAB04E34 SLP092 P0001 T02110194
Observed
Sep-23 @ 06:56 UTC
Wind
  • 240° at 8 KTS
Visibility
10 SM
Flight Rules
VFR
Cloud Levels
  • Scattered at 1,100' AGL
  • Broken at 5,000' AGL
  • Overcast at 7,000' AGL
Temperature
21°C / 70°F
Dewpoint
19°C / 66°F
Humidity
88%
Altimeter
29.83" Hg
Pressure
1010.12 hPa
Current Rain
0.01"
Previous

28 mins ago

KJXN 230646Z AUTO 24009KT 10SM SCT011 OVC050 21/19 A2983 RMK AO2 RAB04E34 P0001 T02110194
Observed
Sep-23 @ 06:46 UTC
Wind
  • 240° at 9 KTS
Visibility
10 SM
Flight Rules
VFR
Cloud Levels
  • Scattered at 1,100' AGL
  • Overcast at 5,000' AGL
Temperature
21°C / 70°F
Dewpoint
19°C / 66°F
Humidity
88%
Altimeter
29.83" Hg
Pressure
1010.12 hPa
Current Rain
0.01"
Previous

1 hour ago

KJXN 230556Z AUTO 22013G22KT 10SM BKN020 OVC029 23/19 A2981 RMK AO2 PK WND 21027/0512 SLP087 60000 T02280189 10256 20211 56004
Observed
Sep-23 @ 05:56 UTC
Wind
  • 220° at 13 KTS
  • Gusting to 22 KTS
Visibility
10 SM
Flight Rules
MVFR
Cloud Levels
  • Broken at 2,000' AGL
  • Overcast at 2,900' AGL
Temperature
23°C / 73°F
Dewpoint
19°C / 66°F
Humidity
78%
Altimeter
29.81" Hg
Pressure
1009.52 hPa